Maersk Vallvik — 9V8839 — position and weather

sailwx.info

Track history (hours):
 
Tides and Currents Weather Stations Pressure Air Temp Water Temp Dewpoint Dewpoint Depression Visibility Wind Speed Wind Dir Waves Ship Positions

Maersk Vallvik

Last reported at 2016-Apr-17 04:33 UTC. Time now 2016-May-01 23:05 UTC.
Position N 18°01' W 060°44'.
Warning: this ship's position is 14 days out of date.

Length 180 m; draft 8 m.

Type: Ship (hazmat cat A). MMSI: 564837000.

Date/timePositionNaut miles runAvg speedWind from/ knotsBaromVisibWave heightAir tempDewpointWater temp
2016-Apr-17 04:33N 18°01' W 060°44'12016.4
2016-Apr-16 21:15N 19°08' W 062°29'1216.5
2016-Apr-16 20:32N 19°14' W 062°40'2016.3
2016-Apr-16 19:18N 19°24' W 062°58'  
2016-Apr-14 08:18N 25°57' W 077°42'1115.0
2016-Apr-14 07:33N 26°03' W 077°52'1514.9
2016-Apr-14 06:33N 26°09' W 078°07'1514.4
2016-Apr-14 05:32N 26°16' W 078°21'45 2.6
2016-Apr-13 12:31N 26°38' W 079°05'321 9.3
2016-Apr-12 02:03N 31°59' W 079°23'339 6.5
2016-Apr-09 22:09N 36°46' W 075°44'6 9.4
2016-Apr-09 21:33N 36°50' W 075°49'10 9.7
2016-Apr-09 20:33N 36°56' W 075°58'1514.6
2016-Apr-09 19:33N 37°00' W 076°16'9 8.9
2016-Apr-09 18:33N 36°53' W 076°21'0 0.2
2016-Apr-09 17:33N 36°53' W 076°21'0 0.0
2016-Apr-09 16:33N 36°53' W 076°21'0 0.0
2016-Apr-09 15:30N 36°53' W 076°21'0 0.0
2016-Apr-09 14:33N 36°53' W 076°21'0 0.0
2016-Apr-09 13:33N 36°53' W 076°21'0 0.0
2016-Apr-09 12:33N 36°53' W 076°21'0 0.0
2016-Apr-09 11:33N 36°53' W 076°21'0 0.0
2016-Apr-09 10:33N 36°53' W 076°21'5 4.8
2016-Apr-09 09:33N 36°57' W 076°20'1211.9
2016-Apr-09 08:33N 36°58' W 076°05'1010.2
2016-Apr-09 07:33N 36°54' W 075°54'11 7.7
2016-Apr-09 06:08N 36°51' W 075°40'2 0.7
2016-Apr-09 03:05N 36°49' W 075°41'3 3.5
2016-Apr-09 02:14N 36°49' W 075°44'6 9.5
2016-Apr-09 01:33N 36°51' W 075°52'1010.0
2016-Apr-09 00:33N 36°59' W 076°00'5416.9
2016-Apr-08 21:21N 37°52' W 076°10'1718.9
2016-Apr-08 20:28N 38°09' W 076°14'3618.6
2016-Apr-08 18:33N 38°43' W 076°26'1918.6
2016-Apr-08 17:34N 39°01' W 076°23'1212.4
2016-Apr-08 16:33N 39°12' W 076°30'4 3.8
2016-Apr-08 15:32N 39°15' W 076°33'0 0.0
2016-Apr-08 14:32N 39°15' W 076°33'0 0.0
2016-Apr-08 13:32N 39°15' W 076°33'0 0.0
2016-Apr-08 12:32N 39°15' W 076°33'0 0.0
2016-Apr-08 11:32N 39°15' W 076°33'0 0.0
2016-Apr-08 10:32N 39°15' W 076°33'0 0.0
2016-Apr-08 09:32N 39°15' W 076°33'5 4.6
2016-Apr-08 08:33N 39°12' W 076°30'1111.5
2016-Apr-08 07:34N 39°02' W 076°23'1616.1
2016-Apr-08 06:32N 38°45' W 076°25'5418.0
2016-Apr-08 03:33N 37°53' W 076°09'5217.2
2016-Apr-08 00:31N 37°01' W 076°03'1010.8
2016-Apr-07 23:33N 36°54' W 075°53'17812.7
2016-Apr-07 09:33N 39°26' W 073°55'1413.5
2016-Apr-07 08:33N 39°39' W 073°52'1413.5
2016-Apr-07 07:31N 39°53' W 073°51'2412.4
2016-Apr-07 05:34N 40°17' W 073°49'9 9.4
2016-Apr-07 04:33N 40°27' W 073°49'  
Track history (hours):
 
Tides and Currents Weather Stations Pressure Air Temp Water Temp Dewpoint Dewpoint Depression Visibility Wind Speed Wind Dir Waves Ship Positions

Maersk Vallvik

Last reported at 2016-Apr-17 04:33 UTC. Time now 2016-May-01 23:05 UTC.
Position N 18°01' W 060°44'.
Warning: this ship's position is 14 days out of date.

Length 180 m; draft 8 m.

Type: Ship (hazmat cat A). MMSI: 564837000.

Date/timePositionNaut miles runAvg speedWind from/ knotsBaromVisibWave heightAir tempDewpointWater temp
2016-Apr-17 04:33N 18°01' W 060°44'12016.4
2016-Apr-16 21:15N 19°08' W 062°29'1216.5
2016-Apr-16 20:32N 19°14' W 062°40'2016.3
2016-Apr-16 19:18N 19°24' W 062°58'  
2016-Apr-14 08:18N 25°57' W 077°42'1115.0
2016-Apr-14 07:33N 26°03' W 077°52'1514.9
2016-Apr-14 06:33N 26°09' W 078°07'1514.4
2016-Apr-14 05:32N 26°16' W 078°21'45 2.6
2016-Apr-13 12:31N 26°38' W 079°05'321 9.3
2016-Apr-12 02:03N 31°59' W 079°23'339 6.5
2016-Apr-09 22:09N 36°46' W 075°44'6 9.4
2016-Apr-09 21:33N 36°50' W 075°49'10 9.7
2016-Apr-09 20:33N 36°56' W 075°58'1514.6
2016-Apr-09 19:33N 37°00' W 076°16'9 8.9
2016-Apr-09 18:33N 36°53' W 076°21'0 0.2
2016-Apr-09 17:33N 36°53' W 076°21'0 0.0
2016-Apr-09 16:33N 36°53' W 076°21'0 0.0
2016-Apr-09 15:30N 36°53' W 076°21'0 0.0
2016-Apr-09 14:33N 36°53' W 076°21'0 0.0
2016-Apr-09 13:33N 36°53' W 076°21'0 0.0
2016-Apr-09 12:33N 36°53' W 076°21'0 0.0
2016-Apr-09 11:33N 36°53' W 076°21'0 0.0
2016-Apr-09 10:33N 36°53' W 076°21'5 4.8
2016-Apr-09 09:33N 36°57' W 076°20'1211.9
2016-Apr-09 08:33N 36°58' W 076°05'1010.2
2016-Apr-09 07:33N 36°54' W 075°54'11 7.7
2016-Apr-09 06:08N 36°51' W 075°40'2 0.7
2016-Apr-09 03:05N 36°49' W 075°41'3 3.5
2016-Apr-09 02:14N 36°49' W 075°44'6 9.5
2016-Apr-09 01:33N 36°51' W 075°52'1010.0
2016-Apr-09 00:33N 36°59' W 076°00'5416.9
2016-Apr-08 21:21N 37°52' W 076°10'1718.9
2016-Apr-08 20:28N 38°09' W 076°14'3618.6
2016-Apr-08 18:33N 38°43' W 076°26'1918.6
2016-Apr-08 17:34N 39°01' W 076°23'1212.4
2016-Apr-08 16:33N 39°12' W 076°30'4 3.8
2016-Apr-08 15:32N 39°15' W 076°33'0 0.0
2016-Apr-08 14:32N 39°15' W 076°33'0 0.0
2016-Apr-08 13:32N 39°15' W 076°33'0 0.0
2016-Apr-08 12:32N 39°15' W 076°33'0 0.0
2016-Apr-08 11:32N 39°15' W 076°33'0 0.0
2016-Apr-08 10:32N 39°15' W 076°33'0 0.0
2016-Apr-08 09:32N 39°15' W 076°33'5 4.6
2016-Apr-08 08:33N 39°12' W 076°30'1111.5
2016-Apr-08 07:34N 39°02' W 076°23'1616.1
2016-Apr-08 06:32N 38°45' W 076°25'5418.0
2016-Apr-08 03:33N 37°53' W 076°09'5217.2
2016-Apr-08 00:31N 37°01' W 076°03'1010.8
2016-Apr-07 23:33N 36°54' W 075°53'17812.7
2016-Apr-07 09:33N 39°26' W 073°55'1413.5
2016-Apr-07 08:33N 39°39' W 073°52'1413.5
2016-Apr-07 07:31N 39°53' W 073°51'2412.4
2016-Apr-07 05:34N 40°17' W 073°49'9 9.4
2016-Apr-07 04:33N 40°27' W 073°49'  

Dump ship's entire track history